Time;durP1;ratioP1;P1;durP2;ratioP2;P2;SDS_P1;SDS_P2;PMS_P1;PMS_P2;Temp;Humidity;BMP_temperature;BMP_pressure;BME280_temperature;BME280_humidity;BME280_pressure;Samples;Min_cycle;Max_cycle;Signal;HPM_P1;HPM_P2
2021/05/02 00:01:43;;;;;;;19.55;9.88;;;;;;;10.15;65.97;99959.50;1709052;83;21328;-78
2021/05/02 00:04:12;;;;;;;21.40;9.78;;;;;;;10.15;65.97;99959.50;1707864;82;21152;-78
2021/05/02 00:06:40;;;;;;;26.17;10.98;;;;;;;10.11;66.00;99962.97;1718111;82;21113;-80
2021/05/02 00:09:09;;;;;;;20.75;10.53;;;;;;;10.07;66.04;99956.33;1719489;82;21175;-81
2021/05/02 00:11:37;;;;;;;21.87;11.33;;;;;;;10.04;66.86;99959.59;1724743;83;21207;-75
2021/05/02 00:14:06;;;;;;;24.10;10.90;;;;;;;10.02;67.44;99954.36;1718175;83;21411;-80
2021/05/02 00:16:35;;;;;;;22.65;9.98;;;;;;;10.00;66.84;99947.48;1719742;82;21608;-77
2021/05/02 00:19:09;;;;;;;18.85;9.63;;;;;;;9.98;66.61;99948.28;1718762;83;21840;-78
2021/05/02 00:21:39;;;;;;;19.27;9.50;;;;;;;9.98;66.18;99943.66;1684903;83;21315;-79
2021/05/02 00:24:08;;;;;;;17.23;8.85;;;;;;;9.96;65.80;99944.98;1722896;82;21589;-78
2021/05/02 00:26:36;;;;;;;;;;;;;;;9.93;65.95;99950.95;1702507;83;21184;-75
2021/05/02 00:29:04;;;;;;;18.45;9.55;;;;;;;9.89;66.20;99953.91;1710281;82;20175;-76
2021/05/02 00:31:32;;;;;;;20.40;9.30;;;;;;;9.87;66.32;99953.31;1675994;83;21322;-75
2021/05/02 00:34:00;;;;;;;20.95;9.20;;;;;;;9.81;66.34;99949.70;1700183;84;21148;-77
2021/05/02 00:36:28;;;;;;;17.63;9.10;;;;;;;9.75;66.28;99949.86;1716984;82;21209;-75
2021/05/02 00:38:56;;;;;;;20.48;9.63;;;;;;;9.70;66.54;99944.31;1694143;84;21168;-76
2021/05/02 00:41:29;;;;;;;18.55;8.88;;;;;;;9.67;66.51;99943.44;1698628;83;21780;-79
2021/05/02 00:44:05;;;;;;;17.52;9.00;;;;;;;9.63;66.79;99939.03;1700449;83;21213;-77
2021/05/02 00:46:37;;;;;;;17.87;8.98;;;;;;;9.61;66.51;99936.27;1691998;83;21157;-79
2021/05/02 00:49:18;;;;;;;21.90;9.68;;;;;;;9.61;66.62;99945.83;1643950;85;21620;-78
2021/05/02 00:51:54;;;;;;;19.32;9.83;;;;;;;9.59;67.25;99945.52;1697101;82;21145;-75
2021/05/02 00:54:33;;;;;;;19.60;9.18;;;;;;;9.59;66.34;99950.16;1723411;82;21180;-81
2021/05/02 00:57:18;;;;;;;17.85;9.55;;;;;;;9.55;66.32;99947.64;1692441;84;21219;-77
2021/05/02 01:00:06;;;;;;;16.40;9.25;;;;;;;9.51;66.26;99945.94;1716995;83;21180;-83
2021/05/02 01:02:35;;;;;;;18.17;10.13;;;;;;;9.49;66.12;99944.00;1709737;82;21207;-78
2021/05/02 01:05:06;;;;;;;22.50;10.05;;;;;;;9.49;66.06;99941.27;1693263;85;21275;-77
2021/05/02 01:07:37;;;;;;;25.75;10.50;;;;;;;9.47;66.98;99942.06;1692876;83;21149;-82
2021/05/02 01:10:13;;;;;;;21.02;9.40;;;;;;;9.41;67.59;99925.29;1682791;84;21169;-76
2021/05/02 01:12:50;;;;;;;22.45;10.13;;;;;;;9.41;67.59;99925.29;1700360;84;21692;-78
2021/05/02 01:15:22;;;;;;;17.37;9.53;;;;;;;9.38;68.17;99923.08;1703224;83;21131;-78
2021/05/02 01:18:06;;;;;;;20.85;10.00;;;;;;;9.34;68.01;99915.61;1701150;84;21279;-79
2021/05/02 01:20:37;;;;;;;22.17;10.32;;;;;;;9.33;68.17;99912.61;1701207;84;21169;-75
2021/05/02 01:23:13;;;;;;;18.98;9.70;;;;;;;9.34;68.57;99901.95;1699684;84;21703;-77
2021/05/02 01:25:41;;;;;;;24.70;10.28;;;;;;;9.35;67.78;99895.42;1699374;83;21141;-77
2021/05/02 01:28:09;;;;;;;20.55;10.35;;;;;;;9.31;67.78;99896.45;1691828;84;21622;-76
2021/05/02 01:30:38;;;;;;;21.77;10.20;;;;;;;9.27;67.60;99893.10;1695906;83;21197;-76
2021/05/02 01:33:06;;;;;;;19.57;10.43;;;;;;;9.22;67.57;99897.95;1723067;82;21343;-78
2021/05/02 01:35:34;;;;;;;;;;;;;;;9.19;67.90;99892.98;1666691;85;21156;-79
2021/05/02 01:38:02;;;;;;;17.77;9.53;;;;;;;9.17;67.76;99889.68;1680794;84;20210;-79
2021/05/02 01:40:30;;;;;;;18.90;9.68;;;;;;;9.17;68.03;99889.68;1706576;82;21613;-79
2021/05/02 01:42:58;;;;;;;18.52;9.48;;;;;;;9.14;68.05;99886.07;1701714;84;21141;-75
2021/05/02 01:45:26;;;;;;;18.35;9.90;;;;;;;9.11;67.80;99882.47;1715028;83;21193;-78
2021/05/02 01:48:03;;;;;;;18.65;9.55;;;;;;;9.09;67.81;99883.26;1719064;82;21173;-77
2021/05/02 01:50:43;;;;;;;20.10;10.58;;;;;;;9.10;67.91;99892.28;1719975;82;21175;-80
2021/05/02 01:53:11;;;;;;;20.10;10.68;;;;;;;9.15;68.86;99887.74;1716877;83;21150;-79
2021/05/02 01:55:39;;;;;;;18.92;11.12;;;;;;;9.15;68.86;99887.74;1679392;84;21181;-77
2021/05/02 01:58:08;;;;;;;19.77;11.12;;;;;;;9.21;68.92;99883.20;1695225;83;21975;-77
2021/05/02 02:00:53;;;;;;;21.80;11.43;;;;;;;9.24;69.02;99876.68;1698062;83;21640;-78
2021/05/02 02:03:21;;;;;;;18.30;10.50;;;;;;;9.27;68.35;99873.98;1700344;84;21144;-79
2021/05/02 02:05:49;;;;;;;29.67;12.07;;;;;;;9.27;68.17;99867.16;1692080;83;21168;-78
2021/05/02 02:08:17;;;;;;;33.65;11.73;;;;;;;9.28;68.25;99862.83;1689357;84;21153;-81
2021/05/02 02:10:48;;;;;;;28.27;10.85;;;;;;;9.24;68.27;99866.29;1689225;83;21287;-81
2021/05/02 02:13:17;;;;;;;17.98;10.00;;;;;;;9.24;68.27;99866.29;1670019;86;21223;-77
2021/05/02 02:15:46;;;;;;;26.55;10.78;;;;;;;9.23;68.72;99864.66;1684944;84;21685;-77
2021/05/02 02:18:16;;;;;;;19.87;10.28;;;;;;;9.27;68.48;99869.36;1696789;84;21206;-76
2021/05/02 02:20:48;;;;;;;19.15;10.28;;;;;;;9.30;68.35;99870.23;1669443;84;21160;-76
2021/05/02 02:23:23;;;;;;;20.40;10.80;;;;;;;9.33;68.40;99878.47;1695507;84;21273;-77
2021/05/02 02:25:52;;;;;;;22.20;11.10;;;;;;;9.36;67.94;99870.58;1687998;84;21187;-76
2021/05/02 02:28:21;;;;;;;39.67;12.23;;;;;;;9.41;67.90;99869.86;1697943;84;21618;-78
2021/05/02 02:30:58;;;;;;;18.35;10.00;;;;;;;9.44;67.87;99867.97;1694697;83;21950;-80
2021/05/02 02:33:31;;;;;;;21.05;10.50;;;;;;;9.47;67.07;99878.39;1693134;84;21540;-76
2021/05/02 02:36:00;;;;;;;23.27;11.08;;;;;;;9.47;67.81;99871.56;1697867;84;21557;-76
2021/05/02 02:38:28;;;;;;;23.30;10.40;;;;;;;9.46;68.21;99869.37;1698735;84;21164;-89
2021/05/02 02:40:57;;;;;;;20.30;10.75;;;;;;;9.46;68.34;99869.94;1698629;84;21255;-83
2021/05/02 02:43:29;;;;;;;21.30;9.68;;;;;;;9.45;69.01;99867.73;1698440;84;21133;-81
2021/05/02 02:45:59;;;;;;;20.10;9.80;;;;;;;9.45;68.57;99865.53;1724008;82;21148;-79
2021/05/02 02:48:28;;;;;;;31.30;11.33;;;;;;;9.47;68.35;99865.57;1722623;82;21596;-79
2021/05/02 02:50:58;;;;;;;22.98;10.60;;;;;;;9.51;68.54;99865.34;1725336;82;21172;-79
2021/05/02 02:53:28;;;;;;;29.90;11.08;;;;;;;9.57;68.32;99871.19;1714893;83;21184;-80
2021/05/02 02:56:14;;;;;;;23.98;10.72;;;;;;;9.62;68.57;99865.49;1684911;84;21611;-75
2021/05/02 02:59:03;;;;;;;29.20;9.70;;;;;;;9.66;67.44;99860.66;1716834;82;21606;-77
2021/05/02 03:01:30;;;;;;;22.10;10.40;;;;;;;9.71;67.35;99853.90;1701171;84;21736;-78
2021/05/02 03:03:59;;;;;;;19.07;9.63;;;;;;;9.74;66.93;99860.77;1695795;84;21155;-74
2021/05/02 03:06:27;;;;;;;20.15;9.28;;;;;;;9.73;67.25;99859.10;1685408;84;21576;-75
2021/05/02 03:08:56;;;;;;;23.77;9.38;;;;;;;9.73;67.37;99859.10;1705540;84;21667;-75
2021/05/02 03:11:24;;;;;;;16.27;8.73;;;;;;;9.75;67.04;99856.94;1706022;82;21168;-78
2021/05/02 03:13:54;;;;;;;30.35;9.98;;;;;;;9.77;66.79;99853.41;1705322;84;21231;-78
2021/05/02 03:16:28;;;;;;;22.98;9.48;;;;;;;9.83;66.99;99853.77;1685910;82;21165;-79
2021/05/02 03:19:22;;;;;;;20.55;9.18;;;;;;;9.86;66.58;99847.27;1693221;84;21580;-77
2021/05/02 03:21:54;;;;;;;22.15;10.40;;;;;;;9.92;66.90;99848.13;1725711;83;21164;-77
2021/05/02 03:24:31;;;;;;;20.37;10.18;;;;;;;9.98;67.43;99852.59;1722837;82;21116;-75
2021/05/02 03:27:04;;;;;;;15.58;8.83;;;;;;;10.03;67.14;99845.83;1707216;84;21306;-76
2021/05/02 03:29:37;;;;;;;17.42;9.40;;;;;;;10.09;66.59;99844.81;1688575;84;21200;-77
2021/05/02 03:32:11;;;;;;;18.57;9.23;;;;;;;10.15;66.41;99850.64;1701915;84;21165;-77
2021/05/02 03:34:41;;;;;;;22.32;9.98;;;;;;;10.20;66.16;99854.81;1702140;83;21693;-79
2021/05/02 03:37:15;;;;;;;23.55;10.80;;;;;;;10.26;65.97;99866.10;1675361;83;21178;-85
2021/05/02 03:39:44;;;;;;;20.02;9.33;;;;;;;10.32;66.57;99871.94;1698619;84;21146;-77
2021/05/02 03:42:12;;;;;;;40.15;18.70;;;;;;;10.38;67.05;99883.73;1699498;83;21142;-81
2021/05/02 03:44:40;;;;;;;42.73;18.95;;;;;;;10.41;67.35;99874.48;1698822;83;21158;-79
2021/05/02 03:47:09;;;;;;;;;;;;;;;10.43;67.16;99878.32;1698644;84;21142;-77
2021/05/02 03:49:39;;;;;;;38.60;19.62;;;;;;;10.50;67.44;99878.41;1699515;83;20174;-77
2021/05/02 03:52:07;;;;;;;41.00;20.00;;;;;;;10.53;67.36;99876.52;1701459;83;21688;-88
2021/05/02 03:54:36;;;;;;;44.55;19.80;;;;;;;10.58;66.73;99875.21;1698918;82;21207;-77
2021/05/02 03:57:04;;;;;;;42.08;19.52;;;;;;;10.64;66.40;99877.47;1696987;84;21544;-77
2021/05/02 03:59:33;;;;;;;38.33;19.02;;;;;;;10.72;66.21;99882.48;1673637;84;21653;-78
2021/05/02 04:02:02;;;;;;;42.10;18.95;;;;;;;10.79;65.96;99880.36;1697677;84;21706;-82
2021/05/02 04:04:35;;;;;;;41.35;19.48;;;;;;;10.89;65.85;99882.36;1697614;84;21217;-83
2021/05/02 04:07:10;;;;;;;43.63;19.65;;;;;;;10.96;65.58;99884.33;1696553;84;21190;-79
2021/05/02 04:09:45;;;;;;;36.17;18.80;;;;;;;11.02;65.55;99885.51;1697964;83;21174;-83
2021/05/02 04:12:13;;;;;;;40.05;20.43;;;;;;;11.11;65.93;99884.47;1696028;84;21306;-82
2021/05/02 04:14:42;;;;;;;36.25;21.33;;;;;;;11.17;65.78;99891.11;1723737;82;21187;-83
2021/05/02 04:17:12;;;;;;;47.25;20.02;;;;;;;11.24;65.68;99888.14;1720184;82;21237;-78
2021/05/02 04:19:45;;;;;;;39.18;19.45;;;;;;;11.32;65.71;99889.04;1695604;84;21671;-78
2021/05/02 04:22:17;;;;;;;39.80;20.00;;;;;;;11.42;65.31;99889.95;1702562;84;21169;-80
2021/05/02 04:24:46;;;;;;;40.55;20.95;;;;;;;11.53;65.07;99885.91;1723466;82;21146;-77
2021/05/02 04:27:16;;;;;;;43.25;20.85;;;;;;;11.67;64.93;99878.86;1723895;82;21188;-79
2021/05/02 04:29:43;;;;;;;;;;;;;;;11.79;64.51;99879.54;1666129;85;21172;-79
2021/05/02 04:32:11;;;;;;;38.28;15.83;;;;;;;11.91;63.68;99878.23;1709901;82;20160;-79
2021/05/02 04:34:40;;;;;;;49.15;17.30;;;;;;;12.04;63.13;99880.47;1700323;83;21217;-78
2021/05/02 04:37:08;;;;;;;19.32;8.85;;;;;;;12.19;62.51;99876.16;1655410;85;21177;-77
2021/05/02 04:39:37;;;;;;;33.98;12.30;;;;;;;12.37;60.42;99874.31;1700847;82;21198;-79
2021/05/02 04:42:05;;;;;;;21.30;10.87;;;;;;;12.54;60.20;99869.42;1709184;82;21193;-77
2021/05/02 04:44:34;;;;;;;26.77;13.03;;;;;;;12.69;59.79;99865.34;1705515;84;21164;-78
2021/05/02 04:47:02;;;;;;;16.82;8.85;;;;;;;12.79;60.21;99859.03;1706089;84;21136;-78
2021/05/02 04:49:30;;;;;;;21.77;10.15;;;;;;;12.90;58.36;99858.78;1704674;84;21628;-77
2021/05/02 04:51:58;;;;;;;18.92;9.83;;;;;;;13.05;57.81;99861.55;1706224;84;21185;-82
2021/05/02 05:02:58;;;;;;;19.17;9.03;;;;;;;13.67;55.73;99861.78;1828966;77;22623;-81
2021/05/02 05:05:25;;;;;;;22.30;10.88;;;;;;;13.74;55.04;99863.14;1764673;80;21438;-81
2021/05/02 05:07:53;;;;;;;14.33;6.90;;;;;;;13.86;54.59;99863.65;1735000;81;21133;-81
2021/05/02 05:10:21;;;;;;;16.60;8.03;;;;;;;13.99;53.49;99866.36;1743941;80;21180;-81
2021/05/02 05:12:50;;;;;;;19.85;7.25;;;;;;;14.12;52.88;99861.64;1758440;81;21176;-80
2021/05/02 05:15:18;;;;;;;16.20;7.17;;;;;;;14.26;52.43;99863.25;1743791;80;21254;-84
2021/05/02 05:17:46;;;;;;;21.45;7.25;;;;;;;14.39;51.71;99866.26;1746416;80;21271;-82
2021/05/02 05:20:15;;;;;;;20.30;7.05;;;;;;;14.55;51.36;99865.05;1729055;81;21763;-84
2021/05/02 05:22:43;;;;;;;39.45;12.50;;;;;;;14.69;51.09;99858.92;1710139;82;21275;-84
2021/05/02 05:25:11;;;;;;;24.77;7.70;;;;;;;14.81;50.96;99862.14;1693638;84;21170;-84
2021/05/02 05:27:39;;;;;;;26.27;9.95;;;;;;;14.92;50.50;99857.67;1701573;83;21169;-75
2021/05/02 05:30:09;;;;;;;37.20;11.13;;;;;;;15.04;50.21;99851.23;1675177;84;21892;-77
2021/05/02 05:32:37;;;;;;;21.27;7.55;;;;;;;15.16;50.03;99856.36;1692885;83;21200;-79
2021/05/02 05:35:07;;;;;;;32.65;9.00;;;;;;;15.30;49.64;99855.98;1692171;84;21691;-78
2021/05/02 05:37:34;;;;;;;27.37;7.22;;;;;;;15.44;49.70;99847.30;1694172;83;21275;-79
2021/05/02 05:40:08;;;;;;;23.15;7.28;;;;;;;15.57;49.07;99851.34;1705007;84;21612;-82
2021/05/02 05:42:36;;;;;;;25.72;7.30;;;;;;;15.69;48.40;99847.63;1674688;84;21994;-79
2021/05/02 05:45:06;;;;;;;26.93;9.40;;;;;;;15.82;48.44;99846.38;1703713;83;21176;-81
2021/05/02 05:47:35;;;;;;;29.48;6.83;;;;;;;15.96;48.28;99845.69;1694882;83;21171;-84
2021/05/02 05:50:03;;;;;;;59.48;23.87;;;;;;;16.05;48.03;99842.53;1673950;84;21190;-80
2021/05/02 05:52:31;;;;;;;29.80;13.30;;;;;;;16.16;48.03;99847.66;1693849;82;21291;-81
2021/05/02 05:55:00;;;;;;;20.80;5.60;;;;;;;16.27;47.34;99846.39;1695263;84;21163;-82
2021/05/02 05:57:28;;;;;;;34.60;14.47;;;;;;;16.39;46.56;99838.49;1655409;85;21311;-78
2021/05/02 05:59:56;;;;;;;11.68;4.42;;;;;;;16.54;46.35;99844.98;1690487;82;21200;-83
2021/05/02 06:02:24;;;;;;;22.35;8.83;;;;;;;16.67;46.05;99840.89;1699217;83;21174;-78
2021/05/02 06:04:52;;;;;;;11.03;4.33;;;;;;;16.79;46.30;99839.91;1694739;82;21655;-81
2021/05/02 06:07:20;;;;;;;52.10;28.02;;;;;;;16.91;45.77;99839.44;1687181;85;21208;-78
2021/05/02 06:09:48;;;;;;;34.10;16.80;;;;;;;17.00;45.80;99837.07;1696067;83;21157;-76
2021/05/02 06:12:19;;;;;;;18.87;9.35;;;;;;;17.09;45.30;99831.13;1701215;83;21464;-78
2021/05/02 06:14:48;;;;;;;9.75;4.35;;;;;;;17.18;45.35;99831.84;1692248;83;21145;-76
2021/05/02 06:17:17;;;;;;;9.83;3.72;;;;;;;17.26;44.95;99833.33;1679961;84;21186;-80
2021/05/02 06:19:44;;;;;;;17.55;4.22;;;;;;;17.37;44.86;99818.21;1692342;83;21182;-77
2021/05/02 06:22:13;;;;;;;;;;;;;;;17.50;44.65;99819.37;1682180;85;21681;-80
2021/05/02 06:24:41;;;;;;;10.58;4.78;;;;;;;17.60;44.47;99819.20;1688772;83;20172;-79
2021/05/02 06:27:08;;;;;;;9.90;3.30;;;;;;;17.70;44.37;99820.41;1668332;84;21257;-76
2021/05/02 06:29:38;;;;;;;13.13;4.42;;;;;;;17.78;44.22;99815.55;1691482;82;21588;-79
2021/05/02 06:32:05;;;;;;;36.42;17.07;;;;;;;17.88;44.03;99806.21;1695076;84;21301;-80
2021/05/02 06:34:33;;;;;;;15.75;6.20;;;;;;;17.98;44.01;99797.14;1693176;84;21169;-78
2021/05/02 06:37:01;;;;;;;33.30;18.73;;;;;;;18.08;43.39;99801.09;1690384;82;21387;-78
2021/05/02 06:39:29;;;;;;;13.62;7.00;;;;;;;18.18;43.23;99808.36;1690167;85;21198;-78
2021/05/02 06:41:57;;;;;;;9.63;5.17;;;;;;;18.25;43.49;99806.81;1690389;83;21204;-83
2021/05/02 06:44:25;;;;;;;10.05;4.80;;;;;;;18.35;43.50;99803.81;1718953;83;21188;-79
2021/05/02 06:46:54;;;;;;;8.98;3.70;;;;;;;18.43;43.08;99799.48;1702724;82;21200;-78
2021/05/02 06:49:23;;;;;;;9.98;4.72;;;;;;;18.56;42.05;99796.46;1710742;83;21363;-78
2021/05/02 06:51:52;;;;;;;17.10;4.90;;;;;;;18.69;42.12;99792.83;1704652;82;21198;-81
2021/05/02 06:54:20;;;;;;;24.47;11.50;;;;;;;18.78;42.40;99797.88;1689990;83;21161;-79
2021/05/02 06:56:48;;;;;;;16.73;7.25;;;;;;;18.86;42.77;99795.74;1713051;81;21202;-78
2021/05/02 06:59:17;;;;;;;13.53;7.17;;;;;;;18.95;42.12;99791.07;1682593;84;21179;-78
2021/05/02 07:01:46;;;;;;;70.78;39.92;;;;;;;19.05;42.14;99794.98;1697334;82;21596;-80
2021/05/02 07:04:14;;;;;;;82.45;44.35;;;;;;;19.13;42.28;99798.39;1695320;84;21199;-81
2021/05/02 07:06:42;;;;;;;14.00;8.03;;;;;;;19.22;42.45;99798.45;1710654;82;21118;-83
2021/05/02 07:09:10;;;;;;;12.18;4.50;;;;;;;19.34;42.19;99793.14;1685914;84;21196;-81
2021/05/02 07:11:39;;;;;;;;;;;;;;;19.47;41.90;99793.66;1710850;84;21169;-80
2021/05/02 07:14:06;;;;;;;10.95;4.50;;;;;;;19.56;41.54;99791.17;1712708;82;20227;-81
2021/05/02 07:16:34;;;;;;;10.68;4.10;;;;;;;19.64;41.50;99786.80;1702268;84;21199;-77
2021/05/02 07:19:04;;;;;;;14.85;6.97;;;;;;;19.75;41.63;99791.52;1689437;82;21244;-84
2021/05/02 07:21:32;;;;;;;13.00;7.28;;;;;;;19.86;41.66;99790.89;1688811;84;21604;-81
2021/05/02 07:24:01;;;;;;;15.72;9.08;;;;;;;19.97;41.55;99784.48;1707029;82;21172;-81
2021/05/02 07:26:29;;;;;;;;;;;;;;;20.09;41.43;99782.72;1704072;84;21387;-81
2021/05/02 07:28:57;;;;;;;12.13;4.37;;;;;;;20.19;41.61;99776.86;1702031;82;20502;-80
2021/05/02 07:31:25;;;;;;;24.72;4.78;;;;;;;20.31;41.32;99772.12;1704390;84;21168;-81
2021/05/02 07:33:54;;;;;;;19.67;4.00;;;;;;;20.42;41.44;99769.25;1693759;82;21160;-79
2021/05/02 07:36:22;;;;;;;14.68;3.72;;;;;;;20.51;41.32;99764.53;1699995;84;21200;-79
2021/05/02 07:38:51;;;;;;;21.80;13.70;;;;;;;20.60;40.92;99765.34;1695999;82;21556;-81
2021/05/02 07:41:19;;;;;;;9.98;4.90;;;;;;;20.71;40.82;99760.28;1657913;85;21181;-80
2021/05/02 07:43:47;;;;;;;12.95;5.33;;;;;;;20.80;40.47;99769.43;1690352;82;21178;-82
2021/05/02 07:46:16;;;;;;;9.45;3.62;;;;;;;20.88;40.75;99763.88;1662048;84;21158;-79
2021/05/02 07:48:44;;;;;;;8.08;3.40;;;;;;;20.99;41.02;99762.97;1703367;84;21217;-80
2021/05/02 07:51:13;;;;;;;9.25;4.20;;;;;;;21.11;40.56;99756.75;1703717;82;21153;-79
2021/05/02 07:53:41;;;;;;;14.20;6.58;;;;;;;21.22;39.98;99753.88;1714266;84;21560;-79
2021/05/02 07:56:08;;;;;;;23.30;11.95;;;;;;;21.28;40.39;99744.18;1684742;82;21174;-83
2021/05/02 07:58:37;;;;;;;8.83;4.78;;;;;;;21.35;40.44;99737.55;1689384;84;21182;-79
2021/05/02 08:01:05;;;;;;;7.62;3.70;;;;;;;21.44;40.17;99731.37;1701362;82;21130;-81
2021/05/02 08:03:34;;;;;;;12.45;4.42;;;;;;;21.53;40.13;99734.13;1713806;83;21193;-83
2021/05/02 08:06:05;;;;;;;6.70;3.60;;;;;;;21.63;40.22;99724.81;1700607;82;21190;-79
2021/05/02 08:08:32;;;;;;;;;;;;;;;21.74;39.62;99714.94;1692331;85;21127;-82
2021/05/02 08:11:00;;;;;;;16.30;4.10;;;;;;;21.81;39.87;99713.83;1690268;83;20482;-80
2021/05/02 08:13:36;;;;;;;8.98;4.08;;;;;;;21.90;40.08;99717.44;1691357;83;21573;-81
2021/05/02 08:16:04;;;;;;;12.28;5.37;;;;;;;22.00;39.70;99717.05;1703290;82;21165;-78
2021/05/02 08:18:33;;;;;;;9.75;3.55;;;;;;;22.04;39.23;99709.63;1718580;83;21173;-78
2021/05/02 08:21:03;;;;;;;12.65;5.42;;;;;;;22.05;39.32;99709.88;1714699;82;21251;-78
2021/05/02 08:23:31;;;;;;;13.20;4.97;;;;;;;22.14;39.95;99703.66;1689820;85;21700;-79
2021/05/02 08:26:01;;;;;;;12.75;4.30;;;;;;;22.26;39.95;99696.55;1697579;84;21152;-79
2021/05/02 08:28:31;;;;;;;13.78;3.72;;;;;;;22.37;39.69;99697.75;1703132;83;21446;-80
2021/05/02 08:30:59;;;;;;;11.70;5.03;;;;;;;22.47;39.33;99697.34;1701839;82;21164;-79
2021/05/02 08:33:28;;;;;;;10.15;4.05;;;;;;;22.54;39.24;99692.06;1708452;82;21250;-80
2021/05/02 08:35:56;;;;;;;11.97;4.25;;;;;;;22.58;39.45;99695.21;1697531;83;21173;-80
2021/05/02 08:38:24;;;;;;;;;;;;;;;22.68;39.19;99695.39;1703093;82;21176;-80
2021/05/02 08:40:54;;;;;;;10.70;3.40;;;;;;;22.73;38.65;99700.77;1692760;83;20260;-80
2021/05/02 08:43:23;;;;;;;8.75;3.22;;;;;;;22.80;38.71;99692.65;1683500;83;21897;-76
2021/05/02 08:45:52;;;;;;;7.22;3.20;;;;;;;22.91;38.55;99693.04;1696159;83;21183;-78
2021/05/02 08:48:22;;;;;;;13.15;4.97;;;;;;;23.04;38.41;99681.58;1684662;82;21706;-76
2021/05/02 08:50:55;;;;;;;10.55;3.95;;;;;;;23.12;38.53;99683.44;1704140;84;21181;-82
2021/05/02 08:53:23;;;;;;;9.08;5.35;;;;;;;23.06;38.09;99682.05;1706287;82;21635;-79
2021/05/02 08:55:54;;;;;;;;;;;;;;;23.00;38.18;99686.20;1674806;86;21275;-78
2021/05/02 08:58:23;;;;;;;17.25;3.92;;;;;;;23.01;38.66;99671.67;1677139;82;20852;-80
2021/05/02 09:00:51;;;;;;;44.45;5.25;;;;;;;23.03;38.86;99671.56;1690401;83;21189;-81
2021/05/02 09:03:19;;;;;;;15.50;4.12;;;;;;;23.08;38.51;99669.95;1697083;82;21417;-80
2021/05/02 09:05:49;;;;;;;15.03;4.00;;;;;;;23.16;38.46;99676.59;1724774;82;21132;-80
2021/05/02 09:08:32;;;;;;;18.85;8.75;;;;;;;23.26;38.58;99672.78;1708508;82;21176;-78
2021/05/02 09:11:00;;;;;;;12.33;5.65;;;;;;;23.38;38.57;99669.81;1694750;84;21559;-78
2021/05/02 09:13:30;;;;;;;11.53;4.50;;;;;;;23.46;38.30;99667.47;1704486;83;21232;-81
2021/05/02 09:16:00;;;;;;;8.13;3.22;;;;;;;23.50;37.92;99664.23;1704757;82;21160;-80
2021/05/02 09:18:38;;;;;;;11.22;3.40;;;;;;;23.49;37.86;99657.00;1713826;81;21171;-77
2021/05/02 09:21:08;;;;;;;26.95;5.00;;;;;;;23.47;37.46;99655.97;1710008;82;21591;-78
2021/05/02 09:23:42;;;;;;;15.75;3.87;;;;;;;23.44;37.85;99655.84;1692620;84;21161;-79
2021/05/02 09:26:27;;;;;;;7.53;3.58;;;;;;;23.43;37.88;99657.02;1694230;82;21626;-80
2021/05/02 09:28:57;;;;;;;7.05;3.80;;;;;;;23.38;38.30;99657.46;1716413;82;21623;-83
2021/05/02 09:31:30;;;;;;;11.25;3.52;;;;;;;23.34;38.39;99649.52;1689961;82;21214;-82
2021/05/02 09:34:14;;;;;;;11.60;3.77;;;;;;;23.27;38.75;99647.89;1702730;82;21665;-80
2021/05/02 09:37:06;;;;;;;16.65;3.87;;;;;;;23.23;38.71;99646.94;1694702;82;21172;-79
2021/05/02 09:39:53;;;;;;;12.82;4.10;;;;;;;23.17;38.97;99644.13;1699836;84;21180;-82
2021/05/02 09:42:45;;;;;;;22.17;3.90;;;;;;;23.06;39.32;99644.36;1695505;81;21255;-82
2021/05/02 09:45:11;;;;;;;7.80;3.70;;;;;;;22.94;39.49;99653.28;1682294;83;21745;-80
2021/05/02 09:47:43;;;;;;;7.67;3.75;;;;;;;22.82;39.45;99648.47;1646827;84;21592;-81
2021/05/02 09:50:23;;;;;;;7.42;4.22;;;;;;;22.80;39.70;99656.38;1676856;84;21408;-82
2021/05/02 09:53:05;;;;;;;13.98;4.20;;;;;;;22.79;40.20;99649.18;1672367;83;21768;-82
2021/05/02 09:55:46;;;;;;;12.10;4.92;;;;;;;22.78;39.89;99636.95;1697447;84;21160;-76
2021/05/02 09:58:17;;;;;;;11.12;4.15;;;;;;;22.79;40.06;99638.02;1694111;82;21726;-75
2021/05/02 10:00:56;;;;;;;12.58;4.22;;;;;;;22.83;40.00;99636.16;1703269;84;21199;-79
2021/05/02 10:03:25;;;;;;;15.18;4.58;;;;;;;22.89;40.07;99626.99;1692119;82;21273;-80
2021/05/02 10:06:05;;;;;;;9.00;4.50;;;;;;;22.95;40.07;99624.20;1713714;83;21193;-82
2021/05/02 10:08:34;;;;;;;9.73;4.00;;;;;;;23.00;40.00;99622.00;1701388;82;21168;-80
2021/05/02 10:11:11;;;;;;;9.30;4.42;;;;;;;23.08;40.02;99622.48;1687864;83;21136;-80
2021/05/02 10:13:39;;;;;;;9.08;4.28;;;;;;;23.15;39.87;99621.33;1684447;82;21166;-79
2021/05/02 10:16:12;;;;;;;7.47;4.28;;;;;;;23.19;39.97;99620.06;1703170;82;21125;-79
2021/05/02 10:18:40;;;;;;;52.60;7.25;;;;;;;23.23;39.71;99626.00;1692114;82;21210;-77
2021/05/02 10:21:09;;;;;;;10.82;4.17;;;;;;;23.31;39.59;99623.69;1682639;83;21172;-80
2021/05/02 10:23:38;;;;;;;11.25;4.10;;;;;;;23.40;39.49;99611.63;1659483;83;21114;-76
2021/05/02 10:26:06;;;;;;;;;;;;;;;23.48;39.37;99612.09;1697884;83;21698;-77
2021/05/02 10:28:35;;;;;;;;;;;;;;;23.54;39.14;99615.69;1697443;82;20423;-84
2021/05/02 10:31:06;;;;;;;9.53;4.17;;;;;;;23.58;39.04;99609.63;1693168;84;20189;-82
2021/05/02 10:33:41;;;;;;;7.90;4.80;;;;;;;23.60;38.78;99614.88;1695412;82;21287;-79
2021/05/02 10:36:16;;;;;;;9.00;4.10;;;;;;;23.60;39.05;99613.48;1699422;83;21177;-77
2021/05/02 10:39:00;;;;;;;11.40;4.28;;;;;;;23.56;38.68;99609.73;1684587;82;21284;-78
2021/05/02 10:41:37;;;;;;;15.43;4.42;;;;;;;23.47;39.16;99618.83;1704317;84;21148;-78
2021/05/02 10:44:14;;;;;;;10.03;4.33;;;;;;;23.40;39.58;99611.63;1701022;82;21193;-78
2021/05/02 10:46:50;;;;;;;11.25;4.90;;;;;;;23.34;39.40;99610.42;1663927;84;21279;-78
2021/05/02 10:49:26;;;;;;;9.33;4.62;;;;;;;23.33;39.86;99603.20;1697724;82;21157;-76
2021/05/02 10:51:57;;;;;;;11.05;5.30;;;;;;;23.29;39.64;99600.88;1710579;83;21609;-77
2021/05/02 10:54:41;;;;;;;13.25;4.55;;;;;;;23.30;39.76;99593.33;1677135;82;21247;-76
2021/05/02 10:57:22;;;;;;;9.60;4.08;;;;;;;23.34;39.57;99594.24;1680077;83;21243;-76
2021/05/02 11:00:09;;;;;;;11.57;5.87;;;;;;;23.38;39.60;99593.80;1601259;84;21152;-77
2021/05/02 11:02:44;;;;;;;7.78;4.35;;;;;;;23.40;40.08;99594.86;1709982;84;21197;-76
2021/05/02 11:05:15;;;;;;;9.93;4.42;;;;;;;23.41;39.78;99595.08;1709633;82;21159;-75
2021/05/02 11:07:44;;;;;;;24.02;4.87;;;;;;;23.45;39.95;99590.44;1713570;83;21169;-77
2021/05/02 11:10:17;;;;;;;14.07;4.60;;;;;;;23.49;39.85;99589.96;1709230;82;21192;-78
2021/05/02 11:12:48;;;;;;;10.88;4.30;;;;;;;23.56;39.53;99585.41;1697256;84;21164;-75
2021/05/02 11:15:32;;;;;;;7.50;3.70;;;;;;;23.65;39.57;99583.33;1700827;82;21188;-77
2021/05/02 11:18:01;;;;;;;10.03;3.50;;;;;;;23.72;38.34;99581.33;1695759;84;21126;-81
2021/05/02 11:20:53;;;;;;;11.03;3.83;;;;;;;23.75;38.46;99579.23;1700533;83;21200;-78
2021/05/02 11:23:57;;;;;;;12.65;3.33;;;;;;;23.78;38.05;99582.11;1695215;84;21220;-82
2021/05/02 11:27:04;;;;;;;8.35;3.55;;;;;;;23.77;38.09;99576.31;1687317;82;21155;-75
2021/05/02 11:29:37;;;;;;;6.97;3.22;;;;;;;23.74;37.96;99576.19;1694047;82;21292;-78
2021/05/02 11:32:04;;;;;;;11.30;3.95;;;;;;;23.70;38.30;99566.90;1690578;82;21269;-77
2021/05/02 11:34:51;;;;;;;;;;;;;;;23.67;38.43;99574.58;1720970;81;21607;-75
2021/05/02 11:37:53;;;;;;;12.90;7.53;;;;;;;23.65;38.85;99568.53;1684269;83;20183;-78
2021/05/02 11:40:34;;;;;;;9.93;5.83;;;;;;;23.64;38.05;99555.14;1713546;82;21219;-80
2021/05/02 11:43:17;;;;;;;26.15;7.50;;;;;;;23.66;38.28;99546.39;1709374;82;21191;-78
2021/05/02 11:45:58;;;;;;;14.30;7.97;;;;;;;23.73;37.82;99546.64;1701007;82;21172;-77
2021/05/02 11:48:41;;;;;;;15.70;9.23;;;;;;;23.77;37.46;99535.79;1701147;82;21168;-75
2021/05/02 11:51:28;;;;;;;11.08;6.10;;;;;;;23.86;37.33;99519.68;1699534;83;21340;-79
2021/05/02 11:53:57;;;;;;;7.65;4.00;;;;;;;24.02;37.32;99514.16;1709281;82;21211;-85
2021/05/02 11:56:32;;;;;;;10.35;4.22;;;;;;;24.25;37.52;99508.27;1702646;82;21201;-83
2021/05/02 11:59:08;;;;;;;9.60;3.17;;;;;;;24.43;36.97;99503.16;1695153;82;21140;-76